sensor_id;sensor_type;location;lat;lon;timestamp;temperature;humidity
11188;DHT22;5650;52.700;7.306;2023-03-23T00:02:00;11.50;99.90
11188;DHT22;5650;52.700;7.306;2023-03-23T00:04:28;11.50;99.90
11188;DHT22;5650;52.700;7.306;2023-03-23T00:07:03;11.50;99.90
11188;DHT22;5650;52.700;7.306;2023-03-23T00:09:30;11.50;99.90
11188;DHT22;5650;52.700;7.306;2023-03-23T00:12:00;11.50;99.90
11188;DHT22;5650;52.700;7.306;2023-03-23T00:14:31;11.50;99.90
11188;DHT22;5650;52.700;7.306;2023-03-23T00:17:07;11.60;99.90
11188;DHT22;5650;52.700;7.306;2023-03-23T00:19:37;11.60;99.90
11188;DHT22;5650;52.700;7.306;2023-03-23T00:22:13;11.60;99.90
11188;DHT22;5650;52.700;7.306;2023-03-23T00:24:42;11.60;99.90
11188;DHT22;5650;52.700;7.306;2023-03-23T00:27:11;11.60;99.90
11188;DHT22;5650;52.700;7.306;2023-03-23T00:29:40;11.60;99.90
11188;DHT22;5650;52.700;7.306;2023-03-23T00:32:09;11.60;99.90
11188;DHT22;5650;52.700;7.306;2023-03-23T00:34:39;11.60;99.90
11188;DHT22;5650;52.700;7.306;2023-03-23T00:37:13;11.70;99.90
11188;DHT22;5650;52.700;7.306;2023-03-23T00:39:45;11.60;99.90
11188;DHT22;5650;52.700;7.306;2023-03-23T00:42:16;11.60;99.90
11188;DHT22;5650;52.700;7.306;2023-03-23T00:44:43;11.60;99.90
11188;DHT22;5650;52.700;7.306;2023-03-23T00:47:11;11.60;99.90
11188;DHT22;5650;52.700;7.306;2023-03-23T00:49:38;11.60;99.90
11188;DHT22;5650;52.700;7.306;2023-03-23T00:52:07;11.60;99.90
11188;DHT22;5650;52.700;7.306;2023-03-23T00:54:36;11.60;99.90
11188;DHT22;5650;52.700;7.306;2023-03-23T00:57:04;11.60;99.90
11188;DHT22;5650;52.700;7.306;2023-03-23T00:59:31;11.60;99.90
11188;DHT22;5650;52.700;7.306;2023-03-23T01:01:59;11.60;99.90
11188;DHT22;5650;52.700;7.306;2023-03-23T01:04:26;11.60;99.90
11188;DHT22;5650;52.700;7.306;2023-03-23T01:06:57;11.60;99.90
11188;DHT22;5650;52.700;7.306;2023-03-23T01:09:26;11.60;99.90
11188;DHT22;5650;52.700;7.306;2023-03-23T01:11:55;11.60;99.90
11188;DHT22;5650;52.700;7.306;2023-03-23T01:14:22;11.60;99.90
11188;DHT22;5650;52.700;7.306;2023-03-23T01:16:56;11.70;99.90
11188;DHT22;5650;52.700;7.306;2023-03-23T01:19:23;11.60;99.90
11188;DHT22;5650;52.700;7.306;2023-03-23T01:21:53;11.70;99.90
11188;DHT22;5650;52.700;7.306;2023-03-23T01:24:20;11.70;99.90
11188;DHT22;5650;52.700;7.306;2023-03-23T01:26:54;11.70;99.90
11188;DHT22;5650;52.700;7.306;2023-03-23T01:29:25;11.70;99.90
11188;DHT22;5650;52.700;7.306;2023-03-23T01:31:54;11.70;99.90
11188;DHT22;5650;52.700;7.306;2023-03-23T01:34:33;11.70;99.90
11188;DHT22;5650;52.700;7.306;2023-03-23T01:37:01;11.70;99.90
11188;DHT22;5650;52.700;7.306;2023-03-23T01:39:28;11.70;99.90
11188;DHT22;5650;52.700;7.306;2023-03-23T01:41:56;11.70;99.90
11188;DHT22;5650;52.700;7.306;2023-03-23T01:47:28;11.70;99.90
11188;DHT22;5650;52.700;7.306;2023-03-23T01:49:55;11.70;99.90
11188;DHT22;5650;52.700;7.306;2023-03-23T01:52:25;11.70;99.90
11188;DHT22;5650;52.700;7.306;2023-03-23T01:54:56;11.70;99.90
11188;DHT22;5650;52.700;7.306;2023-03-23T01:57:35;11.70;99.90
11188;DHT22;5650;52.700;7.306;2023-03-23T02:00:05;11.70;99.90
11188;DHT22;5650;52.700;7.306;2023-03-23T02:02:41;11.70;99.90
11188;DHT22;5650;52.700;7.306;2023-03-23T02:05:14;11.70;99.90
11188;DHT22;5650;52.700;7.306;2023-03-23T02:07:46;11.70;99.90
11188;DHT22;5650;52.700;7.306;2023-03-23T02:10:14;11.70;99.90
11188;DHT22;5650;52.700;7.306;2023-03-23T02:12:43;11.70;99.90
11188;DHT22;5650;52.700;7.306;2023-03-23T02:15:22;11.70;99.90
11188;DHT22;5650;52.700;7.306;2023-03-23T02:18:03;11.70;99.90
11188;DHT22;5650;52.700;7.306;2023-03-23T02:20:46;11.70;99.90
11188;DHT22;5650;52.700;7.306;2023-03-23T02:23:32;11.70;99.90
11188;DHT22;5650;52.700;7.306;2023-03-23T02:26:16;11.70;99.90
11188;DHT22;5650;52.700;7.306;2023-03-23T02:32:21;11.70;99.90
11188;DHT22;5650;52.700;7.306;2023-03-23T02:34:55;11.70;99.90
11188;DHT22;5650;52.700;7.306;2023-03-23T02:37:31;11.70;99.90
11188;DHT22;5650;52.700;7.306;2023-03-23T02:40:06;11.70;99.90
11188;DHT22;5650;52.700;7.306;2023-03-23T02:42:46;11.70;99.90
11188;DHT22;5650;52.700;7.306;2023-03-23T02:45:16;11.70;99.90
11188;DHT22;5650;52.700;7.306;2023-03-23T02:47:44;11.70;99.90
11188;DHT22;5650;52.700;7.306;2023-03-23T02:50:15;11.70;99.90
11188;DHT22;5650;52.700;7.306;2023-03-23T02:52:44;11.70;99.90
11188;DHT22;5650;52.700;7.306;2023-03-23T02:55:16;11.70;99.90
11188;DHT22;5650;52.700;7.306;2023-03-23T02:57:45;11.70;99.90
11188;DHT22;5650;52.700;7.306;2023-03-23T03:00:15;11.70;99.90
11188;DHT22;5650;52.700;7.306;2023-03-23T03:02:45;11.70;99.90
11188;DHT22;5650;52.700;7.306;2023-03-23T03:05:30;11.70;99.90
11188;DHT22;5650;52.700;7.306;2023-03-23T03:08:09;11.70;99.90
11188;DHT22;5650;52.700;7.306;2023-03-23T03:10:48;11.70;99.90
11188;DHT22;5650;52.700;7.306;2023-03-23T03:13:27;11.70;99.90
11188;DHT22;5650;52.700;7.306;2023-03-23T03:16:00;11.70;99.90
11188;DHT22;5650;52.700;7.306;2023-03-23T03:18:33;11.70;99.90
11188;DHT22;5650;52.700;7.306;2023-03-23T03:21:06;11.80;99.90
11188;DHT22;5650;52.700;7.306;2023-03-23T03:23:38;11.80;99.90
11188;DHT22;5650;52.700;7.306;2023-03-23T03:26:07;11.80;99.90
11188;DHT22;5650;52.700;7.306;2023-03-23T03:28:43;11.80;99.90
11188;DHT22;5650;52.700;7.306;2023-03-23T03:31:14;11.80;99.90
11188;DHT22;5650;52.700;7.306;2023-03-23T03:33:45;11.80;99.90
11188;DHT22;5650;52.700;7.306;2023-03-23T03:36:18;11.80;99.90
11188;DHT22;5650;52.700;7.306;2023-03-23T03:38:52;11.80;99.90
11188;DHT22;5650;52.700;7.306;2023-03-23T03:41:25;11.80;99.90
11188;DHT22;5650;52.700;7.306;2023-03-23T03:43:53;11.80;99.90
11188;DHT22;5650;52.700;7.306;2023-03-23T03:46:23;11.80;99.90
11188;DHT22;5650;52.700;7.306;2023-03-23T03:48:53;11.80;99.90
11188;DHT22;5650;52.700;7.306;2023-03-23T03:51:23;11.80;99.90
11188;DHT22;5650;52.700;7.306;2023-03-23T03:53:51;11.90;99.90
11188;DHT22;5650;52.700;7.306;2023-03-23T03:56:18;11.80;99.90
11188;DHT22;5650;52.700;7.306;2023-03-23T03:58:50;11.80;99.90
11188;DHT22;5650;52.700;7.306;2023-03-23T04:01:20;11.80;99.90
11188;DHT22;5650;52.700;7.306;2023-03-23T04:03:48;11.80;99.90
11188;DHT22;5650;52.700;7.306;2023-03-23T04:06:17;11.80;99.90
11188;DHT22;5650;52.700;7.306;2023-03-23T04:08:48;11.80;99.90
11188;DHT22;5650;52.700;7.306;2023-03-23T04:11:15;11.80;99.90
11188;DHT22;5650;52.700;7.306;2023-03-23T04:13:43;11.80;99.90
11188;DHT22;5650;52.700;7.306;2023-03-23T04:16:13;11.80;99.90
11188;DHT22;5650;52.700;7.306;2023-03-23T04:18:42;11.80;99.90
11188;DHT22;5650;52.700;7.306;2023-03-23T04:21:12;11.80;99.90
11188;DHT22;5650;52.700;7.306;2023-03-23T04:23:40;11.70;99.90
11188;DHT22;5650;52.700;7.306;2023-03-23T04:26:08;11.70;99.90
11188;DHT22;5650;52.700;7.306;2023-03-23T04:28:38;11.70;99.90
11188;DHT22;5650;52.700;7.306;2023-03-23T04:31:06;11.70;99.90
11188;DHT22;5650;52.700;7.306;2023-03-23T04:33:37;11.70;99.90
11188;DHT22;5650;52.700;7.306;2023-03-23T04:36:09;11.70;99.90
11188;DHT22;5650;52.700;7.306;2023-03-23T04:38:39;11.70;99.90
11188;DHT22;5650;52.700;7.306;2023-03-23T04:41:08;11.80;99.90
11188;DHT22;5650;52.700;7.306;2023-03-23T04:43:38;11.80;99.90
11188;DHT22;5650;52.700;7.306;2023-03-23T04:46:10;11.80;99.90
11188;DHT22;5650;52.700;7.306;2023-03-23T04:48:37;11.80;99.90
11188;DHT22;5650;52.700;7.306;2023-03-23T04:51:06;11.80;99.90
11188;DHT22;5650;52.700;7.306;2023-03-23T04:53:34;11.80;99.90
11188;DHT22;5650;52.700;7.306;2023-03-23T04:56:09;11.80;99.90
11188;DHT22;5650;52.700;7.306;2023-03-23T04:58:39;11.80;99.90
11188;DHT22;5650;52.700;7.306;2023-03-23T05:01:09;11.80;99.90
11188;DHT22;5650;52.700;7.306;2023-03-23T05:03:39;11.90;99.90
11188;DHT22;5650;52.700;7.306;2023-03-23T05:06:09;11.80;99.90
11188;DHT22;5650;52.700;7.306;2023-03-23T05:08:37;11.80;99.90
11188;DHT22;5650;52.700;7.306;2023-03-23T05:11:12;11.80;99.90
11188;DHT22;5650;52.700;7.306;2023-03-23T05:13:39;11.90;99.90
11188;DHT22;5650;52.700;7.306;2023-03-23T05:16:12;11.90;99.90
11188;DHT22;5650;52.700;7.306;2023-03-23T05:18:40;11.90;99.90
11188;DHT22;5650;52.700;7.306;2023-03-23T05:21:09;11.90;99.90
11188;DHT22;5650;52.700;7.306;2023-03-23T05:23:37;11.90;99.90
11188;DHT22;5650;52.700;7.306;2023-03-23T05:26:04;11.90;99.90
11188;DHT22;5650;52.700;7.306;2023-03-23T05:28:33;11.90;99.90
11188;DHT22;5650;52.700;7.306;2023-03-23T05:31:02;11.90;99.90
11188;DHT22;5650;52.700;7.306;2023-03-23T05:33:29;11.90;99.90
11188;DHT22;5650;52.700;7.306;2023-03-23T05:35:56;12.00;99.90
11188;DHT22;5650;52.700;7.306;2023-03-23T05:38:23;12.00;99.90
11188;DHT22;5650;52.700;7.306;2023-03-23T05:40:51;11.90;99.90
11188;DHT22;5650;52.700;7.306;2023-03-23T05:43:18;12.00;99.90
11188;DHT22;5650;52.700;7.306;2023-03-23T05:45:48;11.90;99.90
11188;DHT22;5650;52.700;7.306;2023-03-23T05:48:15;11.90;99.90
11188;DHT22;5650;52.700;7.306;2023-03-23T05:50:42;12.00;99.90
11188;DHT22;5650;52.700;7.306;2023-03-23T05:53:10;12.00;99.90
11188;DHT22;5650;52.700;7.306;2023-03-23T05:55:38;12.00;99.90
11188;DHT22;5650;52.700;7.306;2023-03-23T05:58:05;12.00;99.90
11188;DHT22;5650;52.700;7.306;2023-03-23T06:00:32;12.00;99.90
11188;DHT22;5650;52.700;7.306;2023-03-23T06:03:01;12.00;99.90
11188;DHT22;5650;52.700;7.306;2023-03-23T06:05:29;12.00;99.90
11188;DHT22;5650;52.700;7.306;2023-03-23T06:07:56;11.70;99.90
11188;DHT22;5650;52.700;7.306;2023-03-23T06:10:23;11.30;99.90
11188;DHT22;5650;52.700;7.306;2023-03-23T06:12:50;11.00;99.90
11188;DHT22;5650;52.700;7.306;2023-03-23T06:15:18;10.80;99.90
11188;DHT22;5650;52.700;7.306;2023-03-23T06:17:45;10.60;99.90
11188;DHT22;5650;52.700;7.306;2023-03-23T06:20:14;10.50;99.90
11188;DHT22;5650;52.700;7.306;2023-03-23T06:22:41;10.40;99.90
11188;DHT22;5650;52.700;7.306;2023-03-23T06:25:10;10.40;99.90
11188;DHT22;5650;52.700;7.306;2023-03-23T06:27:41;10.40;99.90
11188;DHT22;5650;52.700;7.306;2023-03-23T06:30:16;10.40;99.90
11188;DHT22;5650;52.700;7.306;2023-03-23T06:32:43;10.40;99.90
11188;DHT22;5650;52.700;7.306;2023-03-23T06:35:14;10.40;99.90
11188;DHT22;5650;52.700;7.306;2023-03-23T06:37:41;10.40;99.90
11188;DHT22;5650;52.700;7.306;2023-03-23T06:40:12;10.40;99.90
11188;DHT22;5650;52.700;7.306;2023-03-23T06:42:48;10.40;99.90
11188;DHT22;5650;52.700;7.306;2023-03-23T06:45:15;10.40;99.90
11188;DHT22;5650;52.700;7.306;2023-03-23T06:47:45;10.40;99.90
11188;DHT22;5650;52.700;7.306;2023-03-23T06:50:15;10.40;99.90
11188;DHT22;5650;52.700;7.306;2023-03-23T06:52:45;10.40;99.90
11188;DHT22;5650;52.700;7.306;2023-03-23T06:55:24;10.50;99.90
11188;DHT22;5650;52.700;7.306;2023-03-23T06:57:52;10.50;99.90
11188;DHT22;5650;52.700;7.306;2023-03-23T07:00:19;10.50;99.90
11188;DHT22;5650;52.700;7.306;2023-03-23T07:02:46;10.60;99.90
11188;DHT22;5650;52.700;7.306;2023-03-23T07:05:15;10.60;99.90
11188;DHT22;5650;52.700;7.306;2023-03-23T07:07:45;10.60;99.90
11188;DHT22;5650;52.700;7.306;2023-03-23T07:10:13;10.50;99.90
11188;DHT22;5650;52.700;7.306;2023-03-23T07:12:40;10.50;99.90
11188;DHT22;5650;52.700;7.306;2023-03-23T07:15:08;10.60;99.90
11188;DHT22;5650;52.700;7.306;2023-03-23T07:17:45;10.60;99.90
11188;DHT22;5650;52.700;7.306;2023-03-23T07:20:18;10.60;99.90
11188;DHT22;5650;52.700;7.306;2023-03-23T07:22:45;10.60;99.90
11188;DHT22;5650;52.700;7.306;2023-03-23T07:25:13;10.60;99.90
11188;DHT22;5650;52.700;7.306;2023-03-23T07:27:46;10.60;99.90
11188;DHT22;5650;52.700;7.306;2023-03-23T07:30:13;10.60;99.90
11188;DHT22;5650;52.700;7.306;2023-03-23T07:32:44;10.70;99.90
11188;DHT22;5650;52.700;7.306;2023-03-23T07:35:11;10.70;99.90
11188;DHT22;5650;52.700;7.306;2023-03-23T07:37:40;10.70;99.90
11188;DHT22;5650;52.700;7.306;2023-03-23T07:40:08;10.80;99.90
11188;DHT22;5650;52.700;7.306;2023-03-23T07:42:40;10.80;99.90
11188;DHT22;5650;52.700;7.306;2023-03-23T07:45:08;10.90;99.90
11188;DHT22;5650;52.700;7.306;2023-03-23T07:47:35;10.90;99.90
11188;DHT22;5650;52.700;7.306;2023-03-23T07:50:07;11.00;99.90
11188;DHT22;5650;52.700;7.306;2023-03-23T07:52:35;11.10;99.90
11188;DHT22;5650;52.700;7.306;2023-03-23T07:55:06;11.10;99.90
11188;DHT22;5650;52.700;7.306;2023-03-23T07:57:37;11.20;99.90
11188;DHT22;5650;52.700;7.306;2023-03-23T08:00:07;11.20;99.90
11188;DHT22;5650;52.700;7.306;2023-03-23T08:02:43;11.20;99.90
11188;DHT22;5650;52.700;7.306;2023-03-23T08:05:14;11.30;99.90
11188;DHT22;5650;52.700;7.306;2023-03-23T08:07:48;11.30;99.90
11188;DHT22;5650;52.700;7.306;2023-03-23T08:10:17;11.40;99.90
11188;DHT22;5650;52.700;7.306;2023-03-23T08:12:45;11.40;99.90
11188;DHT22;5650;52.700;7.306;2023-03-23T08:15:13;11.40;99.90
11188;DHT22;5650;52.700;7.306;2023-03-23T08:17:44;11.40;99.90
11188;DHT22;5650;52.700;7.306;2023-03-23T08:20:14;11.40;99.90
11188;DHT22;5650;52.700;7.306;2023-03-23T08:22:49;11.40;99.90
11188;DHT22;5650;52.700;7.306;2023-03-23T08:25:19;11.50;99.90
11188;DHT22;5650;52.700;7.306;2023-03-23T08:27:47;11.60;99.90
11188;DHT22;5650;52.700;7.306;2023-03-23T08:30:16;11.60;99.90
11188;DHT22;5650;52.700;7.306;2023-03-23T08:32:45;11.70;99.90
11188;DHT22;5650;52.700;7.306;2023-03-23T08:35:27;11.70;99.90
11188;DHT22;5650;52.700;7.306;2023-03-23T08:37:58;11.70;99.90
11188;DHT22;5650;52.700;7.306;2023-03-23T08:40:27;11.70;99.90
11188;DHT22;5650;52.700;7.306;2023-03-23T08:42:55;11.70;99.90
11188;DHT22;5650;52.700;7.306;2023-03-23T08:45:31;11.80;99.90
11188;DHT22;5650;52.700;7.306;2023-03-23T08:47:58;11.80;99.90
11188;DHT22;5650;52.700;7.306;2023-03-23T08:50:27;11.90;99.90
11188;DHT22;5650;52.700;7.306;2023-03-23T08:52:59;12.00;99.90
11188;DHT22;5650;52.700;7.306;2023-03-23T08:55:31;12.00;99.90
11188;DHT22;5650;52.700;7.306;2023-03-23T08:57:58;12.00;99.90
11188;DHT22;5650;52.700;7.306;2023-03-23T09:00:26;12.10;99.90
11188;DHT22;5650;52.700;7.306;2023-03-23T09:03:02;12.10;99.90
11188;DHT22;5650;52.700;7.306;2023-03-23T09:05:30;12.10;99.90
11188;DHT22;5650;52.700;7.306;2023-03-23T09:08:00;12.20;99.90
11188;DHT22;5650;52.700;7.306;2023-03-23T09:10:31;12.10;99.90
11188;DHT22;5650;52.700;7.306;2023-03-23T09:13:04;12.10;99.90
11188;DHT22;5650;52.700;7.306;2023-03-23T09:15:32;12.20;99.90
11188;DHT22;5650;52.700;7.306;2023-03-23T09:17:59;12.20;99.90
11188;DHT22;5650;52.700;7.306;2023-03-23T09:20:27;12.20;99.90
11188;DHT22;5650;52.700;7.306;2023-03-23T09:22:56;12.20;99.90
11188;DHT22;5650;52.700;7.306;2023-03-23T09:25:27;12.20;99.90
11188;DHT22;5650;52.700;7.306;2023-03-23T09:27:58;12.20;99.90
11188;DHT22;5650;52.700;7.306;2023-03-23T09:30:33;12.10;99.90
11188;DHT22;5650;52.700;7.306;2023-03-23T09:33:02;12.10;99.90
11188;DHT22;5650;52.700;7.306;2023-03-23T09:35:32;12.10;99.90
11188;DHT22;5650;52.700;7.306;2023-03-23T09:38:01;12.00;99.90
11188;DHT22;5650;52.700;7.306;2023-03-23T09:40:35;12.00;99.90
11188;DHT22;5650;52.700;7.306;2023-03-23T09:43:49;12.00;99.90
11188;DHT22;5650;52.700;7.306;2023-03-23T09:46:38;12.10;99.90
11188;DHT22;5650;52.700;7.306;2023-03-23T09:49:13;12.20;99.90
11188;DHT22;5650;52.700;7.306;2023-03-23T09:51:45;12.30;99.90
11188;DHT22;5650;52.700;7.306;2023-03-23T09:54:24;12.40;99.90
11188;DHT22;5650;52.700;7.306;2023-03-23T09:57:00;12.50;99.90
11188;DHT22;5650;52.700;7.306;2023-03-23T09:59:36;12.50;99.90
11188;DHT22;5650;52.700;7.306;2023-03-23T10:02:13;12.50;99.90
11188;DHT22;5650;52.700;7.306;2023-03-23T10:04:47;12.60;99.90
11188;DHT22;5650;52.700;7.306;2023-03-23T10:07:17;12.60;99.90
11188;DHT22;5650;52.700;7.306;2023-03-23T10:09:46;12.70;99.90
11188;DHT22;5650;52.700;7.306;2023-03-23T10:12:25;12.60;99.90
11188;DHT22;5650;52.700;7.306;2023-03-23T10:15:14;12.60;99.90
11188;DHT22;5650;52.700;7.306;2023-03-23T10:17:50;12.70;99.90
11188;DHT22;5650;52.700;7.306;2023-03-23T10:20:42;12.70;99.90
11188;DHT22;5650;52.700;7.306;2023-03-23T10:23:40;12.90;99.90
11188;DHT22;5650;52.700;7.306;2023-03-23T10:26:14;13.10;99.90
11188;DHT22;5650;52.700;7.306;2023-03-23T10:28:48;13.20;99.90
11188;DHT22;5650;52.700;7.306;2023-03-23T10:31:23;13.40;99.90
11188;DHT22;5650;52.700;7.306;2023-03-23T10:34:03;13.60;99.90
11188;DHT22;5650;52.700;7.306;2023-03-23T10:36:35;13.70;99.90
11188;DHT22;5650;52.700;7.306;2023-03-23T10:39:09;13.80;99.90
11188;DHT22;5650;52.700;7.306;2023-03-23T10:41:38;13.90;99.90
11188;DHT22;5650;52.700;7.306;2023-03-23T10:44:10;13.90;99.90
11188;DHT22;5650;52.700;7.306;2023-03-23T10:46:43;13.90;99.90
11188;DHT22;5650;52.700;7.306;2023-03-23T10:49:18;13.90;99.90
11188;DHT22;5650;52.700;7.306;2023-03-23T10:51:53;13.90;99.90
11188;DHT22;5650;52.700;7.306;2023-03-23T10:54:27;14.00;99.90
11188;DHT22;5650;52.700;7.306;2023-03-23T10:57:11;14.00;99.90
11188;DHT22;5650;52.700;7.306;2023-03-23T10:59:42;14.00;99.90
11188;DHT22;5650;52.700;7.306;2023-03-23T11:02:18;14.10;99.90
11188;DHT22;5650;52.700;7.306;2023-03-23T11:04:53;14.20;99.90
11188;DHT22;5650;52.700;7.306;2023-03-23T11:07:31;14.20;99.90
11188;DHT22;5650;52.700;7.306;2023-03-23T11:10:07;14.10;99.90
11188;DHT22;5650;52.700;7.306;2023-03-23T11:12:38;14.00;99.90
11188;DHT22;5650;52.700;7.306;2023-03-23T11:15:24;14.00;99.90
11188;DHT22;5650;52.700;7.306;2023-03-23T11:18:04;14.10;99.90
11188;DHT22;5650;52.700;7.306;2023-03-23T11:20:36;14.20;99.90
11188;DHT22;5650;52.700;7.306;2023-03-23T11:23:10;14.20;99.90
11188;DHT22;5650;52.700;7.306;2023-03-23T11:25:53;14.10;99.90
11188;DHT22;5650;52.700;7.306;2023-03-23T11:28:30;14.20;99.90
11188;DHT22;5650;52.700;7.306;2023-03-23T11:31:00;14.20;99.90
11188;DHT22;5650;52.700;7.306;2023-03-23T11:33:36;14.30;99.90
11188;DHT22;5650;52.700;7.306;2023-03-23T11:36:06;14.50;99.90
11188;DHT22;5650;52.700;7.306;2023-03-23T11:38:36;14.60;99.90
11188;DHT22;5650;52.700;7.306;2023-03-23T11:41:10;14.70;99.90
11188;DHT22;5650;52.700;7.306;2023-03-23T11:43:45;14.70;99.90
11188;DHT22;5650;52.700;7.306;2023-03-23T11:46:26;14.70;99.90
11188;DHT22;5650;52.700;7.306;2023-03-23T11:49:15;14.60;99.90
11188;DHT22;5650;52.700;7.306;2023-03-23T11:51:47;14.70;99.90
11188;DHT22;5650;52.700;7.306;2023-03-23T11:54:19;14.70;99.90
11188;DHT22;5650;52.700;7.306;2023-03-23T11:56:47;14.80;99.90
11188;DHT22;5650;52.700;7.306;2023-03-23T11:59:16;15.00;99.90
11188;DHT22;5650;52.700;7.306;2023-03-23T12:01:51;15.20;99.90
11188;DHT22;5650;52.700;7.306;2023-03-23T12:04:40;15.30;99.90
11188;DHT22;5650;52.700;7.306;2023-03-23T12:10:18;15.30;99.90
11188;DHT22;5650;52.700;7.306;2023-03-23T12:12:53;15.30;99.90
11188;DHT22;5650;52.700;7.306;2023-03-23T12:15:32;15.30;99.90
11188;DHT22;5650;52.700;7.306;2023-03-23T12:18:10;15.30;99.90
11188;DHT22;5650;52.700;7.306;2023-03-23T12:20:48;15.20;99.90
11188;DHT22;5650;52.700;7.306;2023-03-23T12:23:25;15.30;99.90
11188;DHT22;5650;52.700;7.306;2023-03-23T12:26:18;15.30;99.90
11188;DHT22;5650;52.700;7.306;2023-03-23T12:29:08;15.40;99.90
11188;DHT22;5650;52.700;7.306;2023-03-23T12:31:47;15.50;99.90
11188;DHT22;5650;52.700;7.306;2023-03-23T12:34:23;15.60;99.90
11188;DHT22;5650;52.700;7.306;2023-03-23T12:42:49;15.80;99.90
11188;DHT22;5650;52.700;7.306;2023-03-23T12:45:25;15.60;99.90
11188;DHT22;5650;52.700;7.306;2023-03-23T12:47:58;15.40;99.90
11188;DHT22;5650;52.700;7.306;2023-03-23T12:50:31;15.30;99.90
11188;DHT22;5650;52.700;7.306;2023-03-23T12:53:05;15.10;99.90
11188;DHT22;5650;52.700;7.306;2023-03-23T12:55:39;15.10;99.90
11188;DHT22;5650;52.700;7.306;2023-03-23T12:58:13;15.00;99.90
11188;DHT22;5650;52.700;7.306;2023-03-23T13:00:55;15.00;99.90
11188;DHT22;5650;52.700;7.306;2023-03-23T13:03:28;14.70;99.90
11188;DHT22;5650;52.700;7.306;2023-03-23T13:06:03;14.60;99.90
11188;DHT22;5650;52.700;7.306;2023-03-23T13:08:36;14.50;99.90
11188;DHT22;5650;52.700;7.306;2023-03-23T13:11:08;14.40;99.90
11188;DHT22;5650;52.700;7.306;2023-03-23T13:13:44;14.50;99.90
11188;DHT22;5650;52.700;7.306;2023-03-23T13:16:20;14.50;99.90
11188;DHT22;5650;52.700;7.306;2023-03-23T13:18:57;14.60;99.90
11188;DHT22;5650;52.700;7.306;2023-03-23T13:21:31;14.60;99.90
11188;DHT22;5650;52.700;7.306;2023-03-23T13:24:03;14.70;99.90
11188;DHT22;5650;52.700;7.306;2023-03-23T13:26:31;14.80;99.90
11188;DHT22;5650;52.700;7.306;2023-03-23T13:29:01;14.80;99.90
11188;DHT22;5650;52.700;7.306;2023-03-23T13:31:35;14.90;99.90
11188;DHT22;5650;52.700;7.306;2023-03-23T13:34:16;14.90;99.90
11188;DHT22;5650;52.700;7.306;2023-03-23T13:36:56;14.90;99.90
11188;DHT22;5650;52.700;7.306;2023-03-23T13:39:28;14.80;99.90
11188;DHT22;5650;52.700;7.306;2023-03-23T13:42:05;14.80;99.90
11188;DHT22;5650;52.700;7.306;2023-03-23T13:44:53;14.80;99.90
11188;DHT22;5650;52.700;7.306;2023-03-23T13:47:35;14.80;99.90
11188;DHT22;5650;52.700;7.306;2023-03-23T13:50:27;14.90;99.90
11188;DHT22;5650;52.700;7.306;2023-03-23T13:52:58;15.00;99.90
11188;DHT22;5650;52.700;7.306;2023-03-23T13:55:48;15.10;99.90
11188;DHT22;5650;52.700;7.306;2023-03-23T13:58:25;15.00;99.90
11188;DHT22;5650;52.700;7.306;2023-03-23T14:01:10;15.00;99.90
11188;DHT22;5650;52.700;7.306;2023-03-23T14:03:40;15.00;99.90
11188;DHT22;5650;52.700;7.306;2023-03-23T14:06:12;14.90;99.90
11188;DHT22;5650;52.700;7.306;2023-03-23T14:08:42;14.90;99.90
11188;DHT22;5650;52.700;7.306;2023-03-23T14:11:15;14.80;99.90
11188;DHT22;5650;52.700;7.306;2023-03-23T14:13:46;14.90;99.90
11188;DHT22;5650;52.700;7.306;2023-03-23T14:16:16;14.90;99.90
11188;DHT22;5650;52.700;7.306;2023-03-23T14:18:53;15.00;99.90
11188;DHT22;5650;52.700;7.306;2023-03-23T14:21:42;15.10;99.90
11188;DHT22;5650;52.700;7.306;2023-03-23T14:24:17;15.20;99.90
11188;DHT22;5650;52.700;7.306;2023-03-23T14:26:46;15.20;99.90
11188;DHT22;5650;52.700;7.306;2023-03-23T14:29:14;15.20;99.90
11188;DHT22;5650;52.700;7.306;2023-03-23T14:31:41;15.30;99.90
11188;DHT22;5650;52.700;7.306;2023-03-23T14:34:14;15.30;99.90
11188;DHT22;5650;52.700;7.306;2023-03-23T14:36:43;15.20;99.90
11188;DHT22;5650;52.700;7.306;2023-03-23T14:39:18;15.20;99.90
11188;DHT22;5650;52.700;7.306;2023-03-23T14:41:48;15.10;99.90
11188;DHT22;5650;52.700;7.306;2023-03-23T14:44:20;15.10;99.90
11188;DHT22;5650;52.700;7.306;2023-03-23T14:46:48;15.10;99.90
11188;DHT22;5650;52.700;7.306;2023-03-23T14:49:19;15.10;99.90
11188;DHT22;5650;52.700;7.306;2023-03-23T14:51:51;15.10;99.90
11188;DHT22;5650;52.700;7.306;2023-03-23T14:54:25;15.10;99.90
11188;DHT22;5650;52.700;7.306;2023-03-23T14:56:55;15.10;99.90
11188;DHT22;5650;52.700;7.306;2023-03-23T14:59:22;15.10;99.90
11188;DHT22;5650;52.700;7.306;2023-03-23T15:01:53;15.00;99.90
11188;DHT22;5650;52.700;7.306;2023-03-23T15:04:26;14.90;99.90
11188;DHT22;5650;52.700;7.306;2023-03-23T15:07:04;14.90;99.90
11188;DHT22;5650;52.700;7.306;2023-03-23T15:09:46;14.80;99.90
11188;DHT22;5650;52.700;7.306;2023-03-23T15:12:24;14.70;99.90
11188;DHT22;5650;52.700;7.306;2023-03-23T15:14:54;14.60;99.90
11188;DHT22;5650;52.700;7.306;2023-03-23T15:17:24;14.60;99.90
11188;DHT22;5650;52.700;7.306;2023-03-23T15:19:52;14.70;99.90
11188;DHT22;5650;52.700;7.306;2023-03-23T15:22:24;14.70;99.90
11188;DHT22;5650;52.700;7.306;2023-03-23T15:24:53;14.70;99.90
11188;DHT22;5650;52.700;7.306;2023-03-23T15:27:31;14.70;99.90
11188;DHT22;5650;52.700;7.306;2023-03-23T15:30:00;14.70;99.90
11188;DHT22;5650;52.700;7.306;2023-03-23T15:32:39;14.70;99.90
11188;DHT22;5650;52.700;7.306;2023-03-23T15:35:12;14.70;99.90
11188;DHT22;5650;52.700;7.306;2023-03-23T15:37:43;14.70;99.90
11188;DHT22;5650;52.700;7.306;2023-03-23T15:40:15;14.80;99.90
11188;DHT22;5650;52.700;7.306;2023-03-23T15:42:44;14.90;99.90
11188;DHT22;5650;52.700;7.306;2023-03-23T15:45:22;15.00;99.90
11188;DHT22;5650;52.700;7.306;2023-03-23T15:47:50;15.00;99.90
11188;DHT22;5650;52.700;7.306;2023-03-23T15:50:20;15.00;99.90
11188;DHT22;5650;52.700;7.306;2023-03-23T15:52:59;14.90;99.90
11188;DHT22;5650;52.700;7.306;2023-03-23T15:55:28;14.80;99.90
11188;DHT22;5650;52.700;7.306;2023-03-23T15:57:57;14.70;99.90
11188;DHT22;5650;52.700;7.306;2023-03-23T16:00:26;14.60;99.90
11188;DHT22;5650;52.700;7.306;2023-03-23T16:02:56;14.60;99.90
11188;DHT22;5650;52.700;7.306;2023-03-23T16:05:25;14.70;99.90
11188;DHT22;5650;52.700;7.306;2023-03-23T16:07:53;14.70;99.90
11188;DHT22;5650;52.700;7.306;2023-03-23T16:10:22;14.70;99.90
11188;DHT22;5650;52.700;7.306;2023-03-23T16:12:50;14.70;99.90
11188;DHT22;5650;52.700;7.306;2023-03-23T16:15:19;14.70;99.90
11188;DHT22;5650;52.700;7.306;2023-03-23T16:17:46;14.70;99.90
11188;DHT22;5650;52.700;7.306;2023-03-23T16:20:15;14.70;99.90
11188;DHT22;5650;52.700;7.306;2023-03-23T16:22:44;14.80;99.90
11188;DHT22;5650;52.700;7.306;2023-03-23T16:25:12;14.80;99.90
11188;DHT22;5650;52.700;7.306;2023-03-23T16:27:41;14.80;99.90
11188;DHT22;5650;52.700;7.306;2023-03-23T16:30:14;14.80;99.90
11188;DHT22;5650;52.700;7.306;2023-03-23T16:32:43;14.70;99.90